Time;durP1;ratioP1;P1;durP2;ratioP2;P2;SDS_P1;SDS_P2;PMS_P1;PMS_P2;Temp;Humidity;BMP_temperature;BMP_pressure;BME280_temperature;BME280_humidity;BME280_pressure;Samples;Min_cycle;Max_cycle;Signal;HPM_P1;HPM_P2
2022/12/10 00:01:42;;;;;;;34.58;18.48;;;;;;;6.56;85.98;97423.38;5095538;28;20066;-47
2022/12/10 00:04:09;;;;;;;40.33;21.08;;;;;;;6.55;85.32;97427.00;5094226;28;20075;-47
2022/12/10 00:06:36;;;;;;;35.67;20.45;;;;;;;6.56;84.25;97424.19;5094116;28;20016;-47
2022/12/10 00:09:04;;;;;;;44.03;24.60;;;;;;;6.59;85.46;97431.59;5095422;28;20447;-48
2022/12/10 00:11:30;;;;;;;42.83;21.83;;;;;;;6.47;85.42;97433.22;5093996;28;20056;-48
2022/12/10 00:13:56;;;;;;;42.08;22.63;;;;;;;6.26;87.13;97433.47;5093954;28;20028;-47
2022/12/10 00:16:24;;;;;;;46.92;23.35;;;;;;;6.23;88.76;97426.06;5095268;28;20024;-47
2022/12/10 00:18:51;;;;;;;44.63;23.02;;;;;;;6.22;88.96;97437.47;5094978;28;20579;-47
2022/12/10 00:21:21;;;;;;;39.78;21.95;;;;;;;6.17;89.96;97433.69;5095298;28;20393;-47
2022/12/10 00:23:47;;;;;;;35.30;20.65;;;;;;;6.19;90.29;97430.88;5095113;28;20108;-47
2022/12/10 00:26:17;;;;;;;36.75;19.42;;;;;;;6.17;90.04;97422.47;5093802;28;20031;-47
2022/12/10 00:28:44;;;;;;;37.97;19.75;;;;;;;6.15;90.31;97432.28;5094988;28;20024;-47
2022/12/10 00:31:13;;;;;;;48.20;21.92;;;;;;;6.13;89.84;97440.31;5093670;28;20028;-46
2022/12/10 00:33:38;;;;;;;34.30;18.65;;;;;;;6.08;89.54;97432.31;5093644;28;20024;-47
2022/12/10 00:36:10;;;;;;;30.60;16.95;;;;;;;6.15;90.03;97438.28;5094808;28;20405;-46
2022/12/10 00:38:36;;;;;;;32.20;16.98;;;;;;;6.18;88.75;97437.91;5094823;28;20046;-46
2022/12/10 00:41:03;;;;;;;32.03;16.92;;;;;;;6.15;87.44;97445.31;5093480;28;20016;-46
2022/12/10 00:43:29;;;;;;;29.60;17.50;;;;;;;6.05;86.83;97443.13;5094842;28;20105;-46
2022/12/10 00:45:55;;;;;;;30.40;18.02;;;;;;;6.02;88.04;97434.91;5094689;28;20085;-47
2022/12/10 00:48:21;;;;;;;33.10;18.33;;;;;;;6.08;87.83;97434.13;5093904;28;20016;-46
2022/12/10 00:50:59;;;;;;;31.27;17.58;;;;;;;6.16;87.61;97434.69;5094617;28;20028;-47
2022/12/10 00:53:26;;;;;;;35.70;18.42;;;;;;;6.29;88.23;97427.88;5093257;28;20027;-47
2022/12/10 00:55:52;;;;;;;28.90;18.75;;;;;;;6.39;88.13;97431.63;5094732;28;20032;-47
2022/12/10 00:58:18;;;;;;;32.97;18.02;;;;;;;6.46;88.34;97434.25;5093135;28;20016;-47
2022/12/10 01:00:43;;;;;;;38.08;21.10;;;;;;;6.48;88.10;97436.63;5094298;28;20032;-47
2022/12/10 01:03:09;;;;;;;42.00;19.90;;;;;;;6.47;87.39;97433.22;5094400;28;20021;-47
2022/12/10 01:05:34;;;;;;;34.65;18.55;;;;;;;6.54;88.25;97436.63;5092981;28;20115;-47
2022/12/10 01:08:00;;;;;;;31.08;17.38;;;;;;;6.53;87.62;97435.00;5092951;28;20020;-47
2022/12/10 01:10:26;;;;;;;39.78;19.00;;;;;;;6.52;87.73;97433.44;5092819;28;20028;-47
2022/12/10 01:12:51;;;;;;;28.60;16.50;;;;;;;6.57;87.32;97430.19;5092898;28;20058;-47
2022/12/10 01:15:17;;;;;;;33.85;18.63;;;;;;;6.60;86.76;97435.81;5092798;28;20553;-47
2022/12/10 01:17:42;;;;;;;31.85;17.85;;;;;;;6.66;87.56;97434.19;5094077;28;20024;-47
2022/12/10 01:20:08;;;;;;;31.75;18.50;;;;;;;6.66;87.74;97438.59;5093562;28;20094;-47
2022/12/10 01:22:34;;;;;;;29.77;16.02;;;;;;;6.68;86.88;97441.78;5092663;28;20036;-47
2022/12/10 01:24:59;;;;;;;28.08;15.65;;;;;;;6.62;86.05;97446.03;5092617;28;20024;-47
2022/12/10 01:27:26;;;;;;;31.83;16.83;;;;;;;6.54;85.12;97451.44;5093860;28;20042;-47
2022/12/10 01:29:51;;;;;;;27.75;16.02;;;;;;;6.49;84.07;97454.69;5093849;28;20067;-47
2022/12/10 01:32:17;;;;;;;28.00;16.77;;;;;;;6.47;83.12;97454.09;5092477;28;20052;-46
2022/12/10 01:34:42;;;;;;;28.45;15.93;;;;;;;6.42;83.65;97450.47;5092448;28;20024;-47
2022/12/10 01:37:08;;;;;;;25.58;15.25;;;;;;;6.46;84.49;97464.69;5093651;28;20020;-47
2022/12/10 01:39:34;;;;;;;28.88;17.13;;;;;;;6.53;85.58;97461.06;5092294;28;20401;-47
2022/12/10 01:42:00;;;;;;;26.92;15.02;;;;;;;6.57;85.08;97469.28;5075687;28;20024;-47
2022/12/10 01:44:25;;;;;;;31.40;15.45;;;;;;;6.60;84.62;97467.09;5093614;28;20477;-47
2022/12/10 01:46:53;;;;;;;25.55;14.30;;;;;;;6.65;83.83;97463.84;5093570;28;20035;-47
2022/12/10 01:49:22;;;;;;;27.15;18.42;;;;;;;6.60;83.01;97469.69;5093502;28;20027;-47
2022/12/10 01:51:51;;;;;;;23.98;14.25;;;;;;;6.40;83.10;97468.94;5092148;28;20165;-47
2022/12/10 01:54:30;;;;;;;26.10;14.02;;;;;;;6.36;82.84;97478.16;5093415;28;20028;-47
2022/12/10 01:57:08;;;;;;;25.52;13.70;;;;;;;6.31;82.87;97470.94;5093380;28;20182;-47
2022/12/10 01:59:35;;;;;;;31.13;22.67;;;;;;;6.32;82.54;97471.75;5092187;28;20071;-47
2022/12/10 02:02:36;;;;;;;23.52;15.55;;;;;;;6.27;82.75;97477.56;5093197;28;20028;-47
2022/12/10 02:05:52;;;;;;;28.55;13.98;;;;;;;6.27;83.44;97479.38;5091857;28;20036;-47
2022/12/10 02:08:41;;;;;;;26.02;15.48;;;;;;;6.35;83.35;97481.78;5080502;28;20036;-47
2022/12/10 02:11:11;;;;;;;25.60;15.25;;;;;;;6.40;82.38;97481.97;5093086;28;20504;-47
2022/12/10 02:13:43;;;;;;;28.30;19.17;;;;;;;6.47;82.19;97492.38;5093251;28;20383;-47
2022/12/10 02:16:34;;;;;;;25.73;14.88;;;;;;;6.48;82.43;97494.78;5092948;28;20095;-47
2022/12/10 02:19:18;;;;;;;25.25;14.82;;;;;;;6.51;82.49;97493.56;5091394;28;20038;-47
2022/12/10 02:21:47;;;;;;;27.20;15.20;;;;;;;6.56;81.63;97488.53;5091526;28;20123;-47
2022/12/10 02:24:18;;;;;;;40.58;22.35;;;;;;;6.57;81.59;97488.34;5092835;28;20112;-47
2022/12/10 02:26:49;;;;;;;30.77;19.52;;;;;;;6.56;81.93;97486.75;5091511;28;20039;-47
2022/12/10 02:29:21;;;;;;;39.13;23.85;;;;;;;6.67;82.63;97487.13;5092798;28;20031;-47
2022/12/10 02:31:59;;;;;;;30.95;18.55;;;;;;;6.78;81.02;97486.47;5092732;28;20024;-47
2022/12/10 02:34:30;;;;;;;26.63;16.45;;;;;;;6.71;81.14;97488.31;5091345;28;20031;-47
2022/12/10 02:37:00;;;;;;;27.63;15.73;;;;;;;6.68;79.39;97497.34;5092657;28;20059;-47
2022/12/10 02:39:31;;;;;;;25.50;16.25;;;;;;;6.52;80.33;97488.16;5091242;28;20020;-47
2022/12/10 02:42:00;;;;;;;28.73;16.02;;;;;;;6.50;80.12;97486.75;5091311;28;20034;-47
2022/12/10 02:44:27;;;;;;;34.15;16.40;;;;;;;6.50;81.74;97482.34;5092527;28;20020;-47
2022/12/10 02:46:56;;;;;;;25.88;15.77;;;;;;;6.60;81.16;97490.56;5091128;28;20032;-47
2022/12/10 02:49:24;;;;;;;28.67;15.15;;;;;;;6.55;80.54;97492.94;5092656;28;20024;-47
2022/12/10 02:51:49;;;;;;;28.63;15.35;;;;;;;6.42;79.17;97495.59;5092586;28;20424;-47
2022/12/10 02:54:40;;;;;;;28.95;16.80;;;;;;;6.35;80.88;97494.78;5091007;28;20070;-47
2022/12/10 02:57:08;;;;;;;31.23;18.55;;;;;;;6.39;80.96;97496.78;5091015;28;20378;-47
2022/12/10 02:59:46;;;;;;;29.60;16.35;;;;;;;6.50;80.43;97492.78;5092149;28;20441;-47
2022/12/10 03:02:29;;;;;;;25.85;17.27;;;;;;;6.60;80.90;97476.72;5090959;28;20032;-47
2022/12/10 03:05:05;;;;;;;29.88;18.13;;;;;;;6.66;79.36;97488.94;5090846;28;20493;-47
2022/12/10 03:07:35;;;;;;;;;;;;;;;6.63;81.69;97483.31;5091314;28;20127;-47
2022/12/10 03:10:20;;;;;;;29.90;18.77;;;;;;;6.56;80.07;97480.72;5090670;28;19912;-47
2022/12/10 03:12:51;;;;;;;25.13;17.75;;;;;;;6.51;81.24;97483.94;5090774;28;20060;-47
2022/12/10 03:15:19;;;;;;;26.58;15.52;;;;;;;6.61;80.58;97491.34;5090722;28;20043;-48
2022/12/10 03:17:47;;;;;;;22.98;16.13;;;;;;;6.65;79.61;97481.31;5091984;28;20028;-48
2022/12/10 03:20:15;;;;;;;24.50;17.35;;;;;;;6.45;78.60;97476.94;5091637;28;20518;-47
2022/12/10 03:22:45;;;;;;;25.63;16.13;;;;;;;6.28;77.74;97473.97;5091815;28;20129;-48
2022/12/10 03:25:16;;;;;;;23.58;16.80;;;;;;;6.04;77.67;97483.19;5091886;28;20501;-48
2022/12/10 03:27:45;;;;;;;24.80;17.27;;;;;;;6.06;79.27;97480.41;5090716;28;20047;-48
2022/12/10 03:30:11;;;;;;;26.67;17.13;;;;;;;6.12;79.93;97472.59;5073986;28;20421;-48
2022/12/10 03:32:37;;;;;;;27.02;17.02;;;;;;;6.20;79.90;97485.41;5091817;28;20020;-48
2022/12/10 03:35:05;;;;;;;26.25;17.92;;;;;;;6.29;79.26;97482.56;5090533;28;20028;-48
2022/12/10 03:37:32;;;;;;;31.27;17.38;;;;;;;6.37;78.61;97479.75;5090522;28;20577;-48
2022/12/10 03:39:59;;;;;;;32.35;20.25;;;;;;;6.35;78.94;97484.38;5091972;28;20016;-48
2022/12/10 03:42:24;;;;;;;23.73;17.40;;;;;;;6.43;79.37;97489.38;5091760;28;20397;-48
2022/12/10 03:44:51;;;;;;;27.48;18.67;;;;;;;6.46;79.37;97486.38;5091723;28;20020;-48
2022/12/10 03:47:18;;;;;;;30.80;19.17;;;;;;;6.46;78.17;97494.19;5091738;28;20564;-48
2022/12/10 03:49:43;;;;;;;23.17;17.40;;;;;;;6.37;77.90;97488.38;5090357;28;20036;-48
2022/12/10 03:52:10;;;;;;;25.77;17.83;;;;;;;6.22;77.46;97489.59;5090299;28;20024;-48
2022/12/10 03:54:35;;;;;;;28.80;17.60;;;;;;;5.98;77.51;97499.63;5090280;28;20028;-48
2022/12/10 03:57:01;;;;;;;33.83;18.90;;;;;;;5.86;78.22;97509.81;5091618;28;20490;-48
2022/12/10 03:59:27;;;;;;;30.48;18.85;;;;;;;5.83;79.40;97512.00;5090227;28;20126;-48
2022/12/10 04:01:52;;;;;;;26.75;18.85;;;;;;;5.90;81.19;97512.81;5091491;28;20032;-48
2022/12/10 04:04:18;;;;;;;25.40;18.40;;;;;;;6.02;82.13;97513.03;5090235;28;20085;-47
2022/12/10 04:06:43;;;;;;;28.88;20.80;;;;;;;6.00;82.28;97513.25;5091498;28;20512;-47
2022/12/10 04:09:14;;;;;;;28.95;20.13;;;;;;;5.88;82.38;97520.81;5090180;28;20081;-46
2022/12/10 04:11:40;;;;;;;28.17;19.90;;;;;;;5.75;82.84;97524.19;5090148;28;20028;-46
2022/12/10 04:16:51;;;;;;;35.05;22.10;;;;;;;5.50;84.71;97539.56;5091737;28;20031;-46
2022/12/10 04:19:19;;;;;;;31.67;19.58;;;;;;;5.57;85.43;97542.19;5089875;28;20048;-47
2022/12/10 04:27:35;;;;;;;26.10;18.92;;;;;;;5.68;82.01;97551.22;5095348;28;20536;-47
2022/12/10 04:30:01;;;;;;;24.65;17.75;;;;;;;5.66;80.56;97554.03;5095356;28;20032;-47
2022/12/10 04:32:28;;;;;;;23.92;18.45;;;;;;;5.61;79.58;97566.81;5093696;28;20512;-47
2022/12/10 04:34:55;;;;;;;28.00;18.27;;;;;;;5.64;79.41;97566.44;5093613;28;20059;-48
2022/12/10 04:37:21;;;;;;;30.73;19.95;;;;;;;5.66;79.65;97561.03;5094909;28;20027;-48
2022/12/10 04:39:47;;;;;;;27.85;18.02;;;;;;;5.72;79.18;97576.66;5094736;28;20012;-48
2022/12/10 04:42:13;;;;;;;26.98;18.75;;;;;;;5.73;78.30;97573.06;5093537;28;20032;-48
2022/12/10 04:44:39;;;;;;;25.02;17.60;;;;;;;5.69;78.17;97571.03;5093465;28;20027;-48
2022/12/10 04:47:06;;;;;;;26.80;19.50;;;;;;;5.63;78.36;97564.81;5094699;28;20089;-48
2022/12/10 04:49:32;;;;;;;24.73;19.25;;;;;;;5.68;79.21;97562.44;5094721;28;20028;-48
2022/12/10 04:51:58;;;;;;;24.73;18.70;;;;;;;5.74;78.10;97566.06;5076497;28;20072;-48
2022/12/10 04:54:24;;;;;;;28.30;19.10;;;;;;;5.69;77.00;97566.63;5094550;28;20054;-48
2022/12/10 04:56:50;;;;;;;25.98;19.70;;;;;;;5.64;77.23;97574.25;5093555;28;20385;-48
2022/12/10 04:59:15;;;;;;;25.80;19.20;;;;;;;5.78;77.54;97578.47;5094517;28;20574;-48
2022/12/10 05:01:41;;;;;;;27.00;18.83;;;;;;;5.92;78.24;97578.53;5093026;28;20024;-48
2022/12/10 05:04:10;;;;;;;26.88;20.50;;;;;;;5.86;78.23;97577.50;5093070;28;20417;-48
2022/12/10 05:06:36;;;;;;;28.88;20.40;;;;;;;5.74;79.10;97582.47;5094259;28;20024;-48
2022/12/10 05:09:03;;;;;;;26.85;21.30;;;;;;;5.89;78.31;97591.91;5094248;28;20132;-48
2022/12/10 05:11:30;;;;;;;27.02;20.75;;;;;;;5.96;78.95;97595.38;5094214;28;20031;-48
2022/12/10 05:13:57;;;;;;;28.63;20.95;;;;;;;6.02;78.86;97597.19;5094123;28;20047;-49
2022/12/10 05:16:26;;;;;;;29.38;23.15;;;;;;;5.90;79.48;97601.34;5092822;28;20031;-48
2022/12/10 05:18:53;;;;;;;28.40;21.23;;;;;;;5.84;80.73;97615.16;5093589;28;20046;-49
2022/12/10 05:21:20;;;;;;;35.30;23.90;;;;;;;5.68;81.20;97619.69;5094030;28;20024;-48
2022/12/10 05:23:48;;;;;;;34.33;23.60;;;;;;;5.47;81.43;97619.81;5094223;28;20051;-48
2022/12/10 05:26:20;;;;;;;32.90;24.65;;;;;;;5.36;82.66;97626.38;5093978;28;20028;-48
2022/12/10 05:28:52;;;;;;;29.38;22.55;;;;;;;5.32;83.44;97625.97;5093959;28;20039;-48
2022/12/10 05:31:19;;;;;;;31.52;23.50;;;;;;;5.28;83.14;97622.13;5093887;28;20012;-48
2022/12/10 05:33:45;;;;;;;32.28;25.77;;;;;;;5.29;83.84;97623.75;5093612;28;20396;-48
2022/12/10 05:36:14;;;;;;;24.77;21.13;;;;;;;5.54;83.04;97628.47;5093758;28;20022;-48
2022/12/10 05:38:40;;;;;;;34.47;24.30;;;;;;;5.48;82.79;97629.25;5092446;28;20028;-48
2022/12/10 05:41:09;;;;;;;30.17;21.70;;;;;;;5.34;81.92;97626.56;5093535;28;20020;-48
2022/12/10 05:43:34;;;;;;;36.15;24.02;;;;;;;5.40;82.14;97628.41;5092414;28;20039;-48
2022/12/10 05:46:02;;;;;;;27.70;21.30;;;;;;;5.30;81.49;97627.94;5093537;28;20020;-48
2022/12/10 05:48:27;;;;;;;32.47;22.00;;;;;;;5.27;81.56;97638.75;5093541;28;20070;-48
2022/12/10 05:50:53;;;;;;;31.30;22.70;;;;;;;5.30;82.25;97646.16;5092123;28;20501;-48
2022/12/10 05:53:18;;;;;;;30.10;22.70;;;;;;;5.42;82.62;97645.63;5092144;28;20024;-48
2022/12/10 05:55:45;;;;;;;34.65;21.95;;;;;;;5.36;83.04;97648.00;5092056;28;20020;-48
2022/12/10 05:58:10;;;;;;;32.72;22.05;;;;;;;5.39;83.02;97647.63;5093372;28;20055;-49
2022/12/10 06:00:39;;;;;;;33.70;22.25;;;;;;;5.27;80.73;97648.34;5091803;28;20556;-48
2022/12/10 06:03:05;;;;;;;24.42;21.52;;;;;;;5.18;81.54;97643.28;5093274;28;20024;-49
2022/12/10 06:05:39;;;;;;;23.92;20.65;;;;;;;5.34;82.50;97649.97;5091863;28;20039;-48
2022/12/10 06:08:05;;;;;;;27.70;22.05;;;;;;;5.32;82.19;97654.56;5091888;28;20035;-48
2022/12/10 06:10:30;;;;;;;89.65;46.28;;;;;;;5.32;81.53;97654.56;5091752;28;20028;-48
2022/12/10 06:12:56;;;;;;;42.65;25.67;;;;;;;5.27;81.90;97659.56;5093080;28;20153;-48
2022/12/10 06:15:21;;;;;;;34.38;22.30;;;;;;;5.29;81.67;97659.34;5092998;28;20024;-48
2022/12/10 06:17:47;;;;;;;31.65;22.80;;;;;;;5.36;81.23;97657.59;5091698;28;20032;-48
2022/12/10 06:20:12;;;;;;;28.13;21.55;;;;;;;5.29;80.41;97665.38;5092573;28;20076;-48
2022/12/10 06:22:38;;;;;;;32.33;21.70;;;;;;;5.35;82.30;97663.78;5092891;28;20543;-48
2022/12/10 06:25:05;;;;;;;27.65;20.27;;;;;;;5.63;81.53;97665.53;5091573;28;20099;-48
2022/12/10 06:27:31;;;;;;;27.70;18.92;;;;;;;5.70;79.97;97659.34;5093022;28;20029;-48
2022/12/10 06:29:57;;;;;;;25.48;17.83;;;;;;;5.74;79.70;97675.41;5092745;28;20035;-48
2022/12/10 06:32:22;;;;;;;28.38;18.90;;;;;;;5.70;78.22;97677.56;5092681;28;20108;-48
2022/12/10 06:34:48;;;;;;;21.98;18.15;;;;;;;5.66;78.08;97675.56;5092620;28;20016;-48
2022/12/10 06:37:14;;;;;;;26.20;19.27;;;;;;;5.60;78.04;97680.53;5091304;28;20030;-48
2022/12/10 06:39:39;;;;;;;24.33;18.00;;;;;;;5.78;77.17;97685.22;5091192;28;20494;-48
2022/12/10 06:42:05;;;;;;;27.23;19.10;;;;;;;5.81;75.44;97689.22;5091179;28;20390;-48
2022/12/10 06:44:31;;;;;;;21.20;16.65;;;;;;;5.71;75.93;97688.78;5092492;28;20028;-49
2022/12/10 06:46:56;;;;;;;24.10;15.43;;;;;;;5.78;73.91;97693.03;5090534;28;20020;-48
2022/12/10 06:49:22;;;;;;;23.25;16.75;;;;;;;5.95;73.87;97690.13;5092386;28;20044;-48
2022/12/10 06:51:48;;;;;;;22.23;16.45;;;;;;;5.88;73.20;97691.88;5091073;28;20089;-48
2022/12/10 06:54:14;;;;;;;26.10;18.75;;;;;;;5.78;73.11;97693.03;5092228;28;20028;-48
2022/12/10 06:56:39;;;;;;;28.25;19.90;;;;;;;5.82;73.42;97688.25;5090953;28;20020;-48
2022/12/10 06:59:08;;;;;;;24.13;17.40;;;;;;;5.82;72.36;97684.84;5092312;28;20020;-48
2022/12/10 07:01:34;;;;;;;22.38;17.88;;;;;;;5.64;71.69;97688.75;5092097;28;20386;-48
2022/12/10 07:04:00;;;;;;;26.25;18.98;;;;;;;5.52;72.06;97692.91;5092184;28;20028;-48
2022/12/10 07:06:28;;;;;;;23.88;18.48;;;;;;;5.59;72.93;97699.75;5090844;28;20028;-48
2022/12/10 07:08:54;;;;;;;29.55;20.10;;;;;;;5.70;72.79;97687.19;5092075;28;20490;-48
2022/12/10 07:11:22;;;;;;;26.25;17.40;;;;;;;5.66;70.58;97705.00;5090745;28;20501;-48
2022/12/10 07:13:47;;;;;;;26.20;19.95;;;;;;;5.55;71.36;97713.34;5090681;28;20482;-48
2022/12/10 07:16:17;;;;;;;28.55;19.52;;;;;;;5.51;71.41;97722.53;5092001;28;20043;-48
2022/12/10 07:18:44;;;;;;;27.60;20.25;;;;;;;5.48;72.87;97713.31;5090997;28;20040;-48
2022/12/10 07:21:18;;;;;;;28.20;20.35;;;;;;;5.64;72.98;97730.41;5090389;28;20409;-48
2022/12/10 07:23:44;;;;;;;33.63;21.93;;;;;;;5.74;72.62;97730.88;5091981;28;20028;-48
2022/12/10 07:26:10;;;;;;;30.30;22.13;;;;;;;5.80;73.99;97739.72;5091917;28;20277;-48
2022/12/10 07:28:36;;;;;;;34.47;22.00;;;;;;;5.87;73.01;97735.31;5090612;28;20032;-48
2022/12/10 07:31:06;;;;;;;35.83;22.23;;;;;;;5.86;72.23;97746.75;5091824;28;20034;-48
2022/12/10 07:33:32;;;;;;;29.85;22.73;;;;;;;5.74;71.83;97750.91;5092216;28;20032;-48
2022/12/10 07:35:58;;;;;;;30.40;20.73;;;;;;;5.60;70.75;97737.00;5091884;28;20502;-48
2022/12/10 07:38:24;;;;;;;29.70;19.73;;;;;;;5.45;71.93;97751.91;5090539;28;20035;-48
2022/12/10 07:40:51;;;;;;;31.13;22.30;;;;;;;5.36;72.18;97749.44;5091702;28;20021;-48
2022/12/10 07:43:16;;;;;;;33.25;21.70;;;;;;;5.41;72.45;97751.47;5091792;28;20024;-48
2022/12/10 07:45:42;;;;;;;28.75;21.73;;;;;;;5.49;72.54;97747.94;5090492;28;20557;-48
2022/12/10 07:48:08;;;;;;;26.67;20.77;;;;;;;5.48;70.90;97761.94;5091740;28;20093;-48
2022/12/10 07:50:33;;;;;;;31.52;21.80;;;;;;;5.40;72.19;97755.88;5091914;28;20359;-48
2022/12/10 07:52:59;;;;;;;28.05;19.38;;;;;;;5.34;70.35;97761.06;5091650;28;20489;-48
2022/12/10 07:55:25;;;;;;;27.65;19.52;;;;;;;5.25;71.86;97765.59;5091628;28;20028;-48
2022/12/10 07:57:51;;;;;;;29.83;19.73;;;;;;;5.28;72.30;97775.63;5092971;28;20488;-48
2022/12/10 08:00:17;;;;;;;31.25;20.05;;;;;;;5.15;70.34;97781.53;5095570;28;20012;-48
2022/12/10 08:02:42;;;;;;;27.98;19.38;;;;;;;5.14;71.32;97782.50;5094260;28;20401;-48
2022/12/10 08:05:08;;;;;;;28.02;19.52;;;;;;;5.19;70.88;97782.75;5094204;28;20074;-48
2022/12/10 08:07:34;;;;;;;28.88;18.85;;;;;;;5.10;71.87;97788.28;5095398;28;20024;-48
2022/12/10 08:09:59;;;;;;;27.08;17.58;;;;;;;5.07;72.46;97788.63;5095431;28;20027;-47
2022/12/10 08:12:25;;;;;;;34.88;22.10;;;;;;;4.91;73.87;97792.28;5094084;28;20028;-48
2022/12/10 08:14:51;;;;;;;27.95;20.00;;;;;;;4.79;74.57;97795.41;5095355;28;20384;-48
2022/12/10 08:17:16;;;;;;;28.35;19.15;;;;;;;4.73;74.16;97798.75;5095346;28;20021;-48
2022/12/10 08:19:42;;;;;;;29.00;18.15;;;;;;;4.59;75.42;97804.78;5094925;28;20084;-48
2022/12/10 08:22:07;;;;;;;33.58;20.30;;;;;;;4.53;75.78;97802.94;5095228;28;20095;-48
2022/12/10 08:24:33;;;;;;;28.75;18.35;;;;;;;4.48;75.50;97821.66;5095200;28;20093;-48
2022/12/10 08:26:58;;;;;;;35.70;22.50;;;;;;;4.39;76.30;97813.16;5093791;28;20556;-48
2022/12/10 08:29:24;;;;;;;33.83;21.33;;;;;;;4.49;76.14;97815.47;5095005;28;20401;-48
2022/12/10 08:31:50;;;;;;;36.30;22.35;;;;;;;4.58;76.27;97826.56;5093833;28;20058;-48
2022/12/10 08:34:17;;;;;;;31.05;20.60;;;;;;;4.69;74.84;97833.88;5093648;28;20538;-48
2022/12/10 08:36:43;;;;;;;42.35;22.95;;;;;;;4.76;76.10;97829.56;5093596;28;20487;-48
2022/12/10 08:39:16;;;;;;;29.42;20.70;;;;;;;4.89;73.97;97836.69;5093614;28;20028;-48
2022/12/10 08:41:44;;;;;;;28.65;20.38;;;;;;;4.97;74.44;97830.56;5094729;28;20547;-48
2022/12/10 08:44:10;;;;;;;27.67;19.08;;;;;;;5.14;73.84;97839.72;5094862;28;20093;-48
2022/12/10 08:46:36;;;;;;;36.15;19.45;;;;;;;5.30;72.89;97830.06;5093727;28;20555;-48
2022/12/10 08:49:03;;;;;;;27.63;16.08;;;;;;;5.42;70.66;97835.56;5094701;28;20521;-48
2022/12/10 08:51:29;;;;;;;36.05;19.42;;;;;;;5.36;71.41;97845.72;5093289;28;20056;-48
2022/12/10 08:53:55;;;;;;;31.60;19.98;;;;;;;5.40;71.44;97840.94;5093329;28;20062;-48
2022/12/10 08:56:20;;;;;;;33.90;19.90;;;;;;;5.45;71.00;97848.19;5093185;28;20032;-48
2022/12/10 08:58:46;;;;;;;34.53;21.23;;;;;;;5.42;71.83;97845.97;5093231;28;20028;-48
2022/12/10 09:01:15;;;;;;;29.73;19.83;;;;;;;5.45;71.72;97856.00;5093042;28;20028;-48
2022/12/10 09:03:41;;;;;;;33.97;21.80;;;;;;;5.47;71.02;97849.59;5094438;28;20375;-48
2022/12/10 09:06:10;;;;;;;42.45;21.38;;;;;;;5.50;71.80;97851.03;5094595;28;20035;-48
2022/12/10 09:08:36;;;;;;;26.92;18.90;;;;;;;5.54;71.16;97853.06;5093637;28;20084;-48
2022/12/10 09:11:38;;;;;;;31.38;18.90;;;;;;;5.54;70.49;97866.09;5093067;28;20032;-48
2022/12/10 09:14:03;;;;;;;31.30;19.75;;;;;;;5.53;69.09;97858.47;5079691;28;20416;-48
2022/12/10 09:16:35;;;;;;;25.40;18.98;;;;;;;5.52;69.88;97865.47;5092862;28;20020;-48
2022/12/10 09:19:02;;;;;;;44.60;28.73;;;;;;;5.50;68.46;97857.03;5092616;28;20032;-48
2022/12/10 09:21:28;;;;;;;50.83;39.45;;;;;;;5.42;68.86;97866.78;5092720;28;20062;-48
2022/12/10 09:23:53;;;;;;;42.80;31.00;;;;;;;5.45;68.53;97869.00;5094048;28;20060;-48
2022/12/10 09:26:20;;;;;;;38.70;25.33;;;;;;;5.53;67.54;97874.06;5092611;28;20052;-48
2022/12/10 09:28:47;;;;;;;33.60;20.92;;;;;;;5.58;68.10;97882.94;5094244;28;20106;-48
2022/12/10 09:31:15;;;;;;;34.97;19.10;;;;;;;5.70;67.46;97875.41;5093894;28;20028;-48
2022/12/10 09:33:41;;;;;;;30.73;20.85;;;;;;;5.87;69.03;97880.34;5092538;28;20119;-48
2022/12/10 09:36:09;;;;;;;30.17;18.13;;;;;;;5.96;67.22;97874.03;5094080;28;20406;-48
2022/12/10 09:38:36;;;;;;;31.40;20.88;;;;;;;5.97;66.50;97875.63;5092414;28;20516;-48
2022/12/10 09:41:05;;;;;;;29.58;19.05;;;;;;;5.93;65.93;97875.16;5093630;28;20032;-48
2022/12/10 09:43:43;;;;;;;30.15;18.40;;;;;;;5.97;66.95;97878.22;5092374;28;20131;-48
2022/12/10 09:46:12;;;;;;;33.20;19.65;;;;;;;6.03;67.07;97877.47;5093616;28;20028;-48
2022/12/10 09:48:38;;;;;;;32.92;20.50;;;;;;;6.07;65.36;97873.47;5093556;28;20077;-48
2022/12/10 09:51:18;;;;;;;33.33;20.75;;;;;;;6.02;66.12;97877.66;5093511;28;20028;-48
2022/12/10 09:53:46;;;;;;;30.23;19.40;;;;;;;6.04;66.96;97880.88;5093531;28;20068;-48
2022/12/10 09:56:22;;;;;;;25.20;19.73;;;;;;;5.94;65.71;97887.22;5092088;28;20046;-48
2022/12/10 09:58:48;;;;;;;30.77;19.52;;;;;;;5.99;65.46;97881.44;5093468;28;20028;-48
2022/12/10 10:01:18;;;;;;;29.67;20.52;;;;;;;6.09;66.56;97886.31;5093210;28;20390;-48
2022/12/10 10:03:44;;;;;;;30.75;20.17;;;;;;;6.10;65.55;97883.53;5093297;28;20036;-48
2022/12/10 10:06:14;;;;;;;29.35;20.35;;;;;;;5.98;64.21;97877.25;5093195;28;20360;-48
2022/12/10 10:08:45;;;;;;;34.47;21.58;;;;;;;5.78;65.04;97877.09;5093171;28;20024;-48
2022/12/10 10:11:23;;;;;;;36.88;20.88;;;;;;;5.67;65.63;97886.19;5093166;28;20052;-48
2022/12/10 10:13:55;;;;;;;30.80;19.20;;;;;;;5.74;65.74;97892.28;5091747;28;20036;-48
2022/12/10 10:16:56;;;;;;;29.25;19.05;;;;;;;5.59;64.70;97888.94;5091710;28;20043;-48
2022/12/10 10:19:27;;;;;;;30.70;18.90;;;;;;;5.56;66.18;97882.31;5088759;28;20120;-48
2022/12/10 10:21:53;;;;;;;29.35;18.40;;;;;;;5.54;66.21;97886.09;5091942;28;20057;-48
2022/12/10 10:24:22;;;;;;;26.70;16.55;;;;;;;5.68;66.16;97889.63;5093175;28;20022;-48
2022/12/10 10:26:50;;;;;;;28.42;19.33;;;;;;;5.78;65.41;97892.72;5093044;28;20394;-48
2022/12/10 10:29:20;;;;;;;27.27;17.55;;;;;;;5.83;65.30;97889.53;5092777;28;20024;-48
2022/12/10 10:31:46;;;;;;;25.30;17.30;;;;;;;5.79;63.32;97895.13;5092715;28;20024;-48
2022/12/10 10:34:18;;;;;;;25.13;17.63;;;;;;;5.61;63.72;97889.56;5092685;28;20024;-48
2022/12/10 10:36:44;;;;;;;29.20;21.15;;;;;;;5.51;64.49;97891.66;5092641;28;20122;-48
2022/12/10 10:39:17;;;;;;;39.97;23.77;;;;;;;5.48;64.83;97905.06;5091307;28;20081;-48
2022/12/10 10:41:43;;;;;;;38.63;26.17;;;;;;;5.69;66.91;97899.03;5092479;28;20039;-48
2022/12/10 10:44:23;;;;;;;30.30;19.25;;;;;;;6.02;66.43;97893.28;5092533;28;20030;-48
2022/12/10 10:46:52;;;;;;;30.75;21.45;;;;;;;6.12;64.51;97902.38;5091159;28;20058;-48
2022/12/10 10:49:28;;;;;;;25.08;17.83;;;;;;;6.07;63.02;97901.34;5091065;28;20115;-48
2022/12/10 10:51:59;;;;;;;24.80;16.92;;;;;;;6.06;63.06;97897.94;5092409;28;20036;-48
2022/12/10 10:54:34;;;;;;;28.70;18.30;;;;;;;5.91;63.15;97899.78;5092410;28;20444;-48
2022/12/10 10:57:16;;;;;;;25.15;17.70;;;;;;;5.89;63.22;97897.38;5092561;28;20024;-48
2022/12/10 10:59:42;;;;;;;33.13;16.60;;;;;;;5.87;63.11;97904.56;5092517;28;20036;-48
2022/12/10 11:02:17;;;;;;;24.25;15.90;;;;;;;5.90;62.71;97898.19;5092265;28;20043;-48
2022/12/10 11:04:49;;;;;;;25.73;16.30;;;;;;;5.76;63.40;97918.13;5092220;28;20024;-48
2022/12/10 11:07:34;;;;;;;23.42;17.30;;;;;;;5.82;63.51;97912.16;5092127;28;20520;-48
2022/12/10 11:10:01;;;;;;;29.75;17.88;;;;;;;5.75;62.66;97911.28;5090920;28;20027;-48
2022/12/10 11:12:38;;;;;;;25.98;17.85;;;;;;;5.77;63.50;97915.31;5092356;28;20473;-48
2022/12/10 11:15:22;;;;;;;23.15;13.40;;;;;;;5.83;61.55;97908.53;5091978;28;20024;-48
2022/12/10 11:17:53;;;;;;;23.25;12.05;;;;;;;5.94;59.75;97908.03;5092018;28;20103;-48
2022/12/10 11:20:24;;;;;;;20.95;12.65;;;;;;;5.94;59.20;97917.66;5090323;28;20417;-48
2022/12/10 11:23:01;;;;;;;17.30;11.90;;;;;;;5.94;59.83;97915.84;5091980;28;20073;-48
2022/12/10 11:25:39;;;;;;;21.02;14.10;;;;;;;6.00;59.19;97916.94;5090955;28;20047;-47
2022/12/10 11:28:23;;;;;;;25.25;13.75;;;;;;;6.03;59.54;97916.53;5090684;28;20094;-48
2022/12/10 11:31:05;;;;;;;17.50;12.45;;;;;;;6.09;60.08;97907.16;5091936;28;20066;-48
2022/12/10 11:34:04;;;;;;;20.27;12.88;;;;;;;6.11;60.06;97905.16;5090407;28;20032;-48
2022/12/10 11:36:35;;;;;;;20.38;12.35;;;;;;;6.20;59.97;97909.25;5090565;28;20028;-48
2022/12/10 11:39:21;;;;;;;20.83;12.25;;;;;;;6.31;59.99;97911.31;5092159;28;20047;-48
2022/12/10 11:41:57;;;;;;;22.52;12.55;;;;;;;6.35;58.87;97903.91;5091723;28;20074;-48
2022/12/10 11:44:29;;;;;;;18.08;12.43;;;;;;;6.38;59.78;97900.94;5092024;28;20111;-48